DBLEV CYHU-CYYC
Flight info
| Callsign | DBLEV |
|---|---|
| Flight time | 4h 8m |
| Altitude | 40000 |
| Route | KESKA DCT BIPKO DCT IPSAK DCT OMEGI DCT RADEN DCT 49N080W 5130N09000W 52N100W/N0503F430 DCT GUDOG DCT BIRKO BIRKO6 |
| Aircraft | C750/M-SBDE3FGHRWXY/S |
Departure
| Time | 2026-04-22 16:20 |
|---|---|
| Airport | Montréal / Saint-Hubert Metropolitan Airport (CYHU) |
Arrival
| Time | 2026-04-22 20:28 |
|---|---|
| Airport | Calgary International Airport (CYYC) |
| Time | Latitude | Longitude | Altitude | Speed | Heading |
|---|---|---|---|---|---|
| 2026-04-22 15:12 | 45.51584 | -73.40651 | 87 ft | 0 kts | 140° |
| 2026-04-22 16:06 | 45.51593 | -73.40660 | 87 ft | 4 kts | 101° |
| 2026-04-22 16:07 | 45.51589 | -73.40689 | 89 ft | 2 kts | 83° |
| 2026-04-22 16:07 | 45.51589 | -73.40697 | 88 ft | 0 kts | 83° |
| 2026-04-22 16:12 | 45.51590 | -73.40692 | 88 ft | 1 kts | 69° |
| 2026-04-22 16:12 | 45.51599 | -73.40686 | 90 ft | 1 kts | 12° |
| 2026-04-22 16:12 | 45.51616 | -73.40697 | 86 ft | 5 kts | 326° |
| 2026-04-22 16:13 | 45.51653 | -73.40743 | 88 ft | 9 kts | 313° |
| 2026-04-22 16:13 | 45.51686 | -73.40760 | 91 ft | 4 kts | 37° |
| 2026-04-22 16:13 | 45.51718 | -73.40713 | 89 ft | 10 kts | 47° |
| 2026-04-22 16:13 | 45.51774 | -73.40627 | 89 ft | 11 kts | 43° |
| 2026-04-22 16:14 | 45.51830 | -73.40657 | 89 ft | 8 kts | 321° |
| 2026-04-22 16:14 | 45.51864 | -73.40702 | 91 ft | 5 kts | 315° |
| 2026-04-22 16:14 | 45.51881 | -73.40726 | 92 ft | 4 kts | 315° |
| 2026-04-22 16:14 | 45.51916 | -73.40772 | 92 ft | 10 kts | 317° |
| 2026-04-22 16:15 | 45.51983 | -73.40863 | 91 ft | 16 kts | 316° |
| 2026-04-22 16:15 | 45.52059 | -73.40968 | 93 ft | 14 kts | 316° |
| 2026-04-22 16:15 | 45.52126 | -73.41052 | 93 ft | 12 kts | 316° |
| 2026-04-22 16:15 | 45.52189 | -73.41138 | 91 ft | 13 kts | 316° |
| 2026-04-22 16:16 | 45.52251 | -73.41221 | 90 ft | 11 kts | 318° |
| 2026-04-22 16:16 | 45.52312 | -73.41251 | 91 ft | 9 kts | 32° |
| 2026-04-22 16:16 | 45.52355 | -73.41185 | 91 ft | 8 kts | 49° |
| 2026-04-22 16:16 | 45.52386 | -73.41133 | 90 ft | 5 kts | 47° |
| 2026-04-22 16:17 | 45.52402 | -73.41109 | 92 ft | 1 kts | 46° |
| 2026-04-22 16:17 | 45.52403 | -73.41108 | 92 ft | 0 kts | 46° |
| 2026-04-22 16:17 | 45.52430 | -73.41067 | 93 ft | 13 kts | 47° |
| 2026-04-22 16:17 | 45.52517 | -73.40927 | 94 ft | 15 kts | 50° |
| 2026-04-22 16:18 | 45.52513 | -73.40837 | 95 ft | 8 kts | 124° |
| 2026-04-22 16:18 | 45.52474 | -73.40800 | 96 ft | 4 kts | 162° |
| 2026-04-22 16:18 | 45.52459 | -73.40795 | 94 ft | 0 kts | 189° |
| 2026-04-22 16:18 | 45.52457 | -73.40798 | 93 ft | 0 kts | 222° |
| 2026-04-22 16:19 | 45.52431 | -73.40856 | 95 ft | 15 kts | 227° |
| 2026-04-22 16:19 | 45.52201 | -73.41203 | 93 ft | 96 kts | 229° |
| 2026-04-22 16:19 | 45.51570 | -73.42114 | 174 ft | 146 kts | 221° |
| 2026-04-22 16:19 | 45.50805 | -73.43097 | 632 ft | 151 kts | 215° |
| 2026-04-22 16:20 | 45.50119 | -73.44215 | 1410 ft | 144 kts | 230° |
| 2026-04-22 16:20 | 45.49586 | -73.45302 | 2380 ft | 124 kts | 230° |
| 2026-04-22 16:20 | 45.49068 | -73.46322 | 3018 ft | 135 kts | 230° |
| 2026-04-22 16:20 | 45.48445 | -73.47536 | 3078 ft | 172 kts | 230° |
| 2026-04-22 16:21 | 45.47626 | -73.49051 | 3047 ft | 212 kts | 229° |
| 2026-04-22 16:21 | 45.46741 | -73.50664 | 3000 ft | 204 kts | 229° |
| 2026-04-22 16:21 | 45.45803 | -73.52366 | 3001 ft | 236 kts | 229° |
| 2026-04-22 16:21 | 45.44730 | -73.54292 | 3557 ft | 251 kts | 229° |
| 2026-04-22 16:22 | 45.42552 | -73.58119 | 5573 ft | 251 kts | 230° |
| 2026-04-22 16:22 | 45.41547 | -73.60158 | 6401 ft | 256 kts | 245° |
| 2026-04-22 16:22 | 45.41009 | -73.62560 | 7297 ft | 255 kts | 256° |
| 2026-04-22 16:23 | 45.40501 | -73.67617 | 9215 ft | 261 kts | 269° |
| 2026-04-22 16:23 | 45.40612 | -73.70095 | 9882 ft | 253 kts | 287° |
| 2026-04-22 16:23 | 45.41581 | -73.72220 | 9950 ft | 261 kts | 315° |
| 2026-04-22 16:24 | 45.43008 | -73.73886 | 10004 ft | 275 kts | 320° |
| 2026-04-22 16:24 | 45.45785 | -73.77945 | 9996 ft | 291 kts | 304° |
| 2026-04-22 16:24 | 45.46819 | -73.80435 | 9992 ft | 293 kts | 298° |
| 2026-04-22 16:25 | 45.47794 | -73.82993 | 9992 ft | 298 kts | 300° |
| 2026-04-22 16:25 | 45.50126 | -73.88286 | 10540 ft | 322 kts | 302° |
| 2026-04-22 16:25 | 45.51302 | -73.90996 | 11152 ft | 322 kts | 301° |
| 2026-04-22 16:26 | 45.52463 | -73.93741 | 11711 ft | 324 kts | 301° |
| 2026-04-22 16:26 | 45.53240 | -73.95560 | 12098 ft | 325 kts | 302° |
| 2026-04-22 16:26 | 45.54429 | -73.98307 | 12649 ft | 327 kts | 302° |
| 2026-04-22 16:26 | 45.55625 | -74.01076 | 13199 ft | 329 kts | 302° |
| 2026-04-22 16:27 | 45.56819 | -74.03862 | 13760 ft | 330 kts | 302° |
| 2026-04-22 16:27 | 45.58019 | -74.06666 | 14270 ft | 331 kts | 302° |
| 2026-04-22 16:27 | 45.59224 | -74.09477 | 14789 ft | 332 kts | 302° |
| 2026-04-22 16:27 | 45.60431 | -74.12292 | 15277 ft | 333 kts | 302° |
| 2026-04-22 16:28 | 45.61659 | -74.15105 | 15760 ft | 334 kts | 304° |
| 2026-04-22 16:28 | 45.63027 | -74.17799 | 16266 ft | 335 kts | 307° |
| 2026-04-22 16:28 | 45.64414 | -74.20470 | 16811 ft | 335 kts | 306° |
| 2026-04-22 16:28 | 45.65790 | -74.23171 | 17352 ft | 337 kts | 306° |
| 2026-04-22 16:29 | 45.67164 | -74.25895 | 17882 ft | 338 kts | 306° |
| 2026-04-22 16:29 | 45.68548 | -74.28624 | 18444 ft | 339 kts | 306° |
| 2026-04-22 16:29 | 45.69938 | -74.31354 | 18917 ft | 340 kts | 306° |
| 2026-04-22 16:29 | 45.71178 | -74.34248 | 19356 ft | 343 kts | 298° |
| 2026-04-22 16:30 | 45.71814 | -74.36311 | 19715 ft | 343 kts | 293° |
| 2026-04-22 16:30 | 45.72643 | -74.40750 | 20395 ft | 348 kts | 283° |
| 2026-04-22 16:30 | 45.72898 | -74.44167 | 20862 ft | 351 kts | 279° |
| 2026-04-22 16:30 | 45.73141 | -74.47693 | 21339 ft | 352 kts | 280° |
| 2026-04-22 16:31 | 45.73396 | -74.51183 | 21822 ft | 353 kts | 280° |
| 2026-04-22 16:31 | 45.73641 | -74.54687 | 22296 ft | 355 kts | 280° |
| 2026-04-22 16:31 | 45.73879 | -74.58213 | 22765 ft | 357 kts | 280° |
| 2026-04-22 16:31 | 45.74120 | -74.61755 | 23231 ft | 358 kts | 281° |
| 2026-04-22 16:32 | 45.74365 | -74.65305 | 23684 ft | 359 kts | 281° |
| 2026-04-22 16:32 | 45.74606 | -74.68830 | 24068 ft | 361 kts | 281° |
| 2026-04-22 16:32 | 45.74848 | -74.72414 | 24448 ft | 363 kts | 281° |
| 2026-04-22 16:32 | 45.75090 | -74.76020 | 24820 ft | 364 kts | 281° |
| 2026-04-22 16:33 | 45.75333 | -74.79634 | 25193 ft | 366 kts | 281° |
| 2026-04-22 16:33 | 45.75577 | -74.83276 | 25558 ft | 368 kts | 281° |
| 2026-04-22 16:33 | 45.75914 | -74.86894 | 25899 ft | 366 kts | 286° |
| 2026-04-22 16:33 | 45.76474 | -74.90452 | 26272 ft | 366 kts | 288° |
| 2026-04-22 16:34 | 45.77027 | -74.94018 | 26650 ft | 368 kts | 288° |
| 2026-04-22 16:34 | 45.77564 | -74.97609 | 27039 ft | 370 kts | 288° |
| 2026-04-22 16:34 | 45.78116 | -75.01221 | 27517 ft | 372 kts | 288° |
| 2026-04-22 16:34 | 45.78679 | -75.04845 | 28059 ft | 374 kts | 288° |
| 2026-04-22 16:35 | 45.79241 | -75.08500 | 28572 ft | 377 kts | 288° |
| 2026-04-22 16:35 | 45.79799 | -75.12175 | 29090 ft | 379 kts | 288° |
| 2026-04-22 16:35 | 45.80361 | -75.15879 | 29576 ft | 382 kts | 289° |
| 2026-04-22 16:35 | 45.80929 | -75.19607 | 30081 ft | 385 kts | 288° |
| 2026-04-22 16:36 | 45.81500 | -75.23369 | 30474 ft | 388 kts | 289° |
| 2026-04-22 16:36 | 45.82074 | -75.27165 | 30829 ft | 392 kts | 289° |
| 2026-04-22 16:36 | 45.82652 | -75.31003 | 31266 ft | 393 kts | 288° |
| 2026-04-22 16:36 | 45.83224 | -75.34828 | 31819 ft | 392 kts | 288° |
| 2026-04-22 16:37 | 45.83799 | -75.38653 | 32302 ft | 393 kts | 288° |
| 2026-04-22 16:37 | 45.84375 | -75.42488 | 32805 ft | 393 kts | 289° |
| 2026-04-22 16:37 | 45.84948 | -75.46327 | 33326 ft | 394 kts | 289° |
| 2026-04-22 16:37 | 45.85518 | -75.50165 | 33845 ft | 394 kts | 289° |
| 2026-04-22 16:38 | 45.86090 | -75.54009 | 34304 ft | 394 kts | 288° |
| 2026-04-22 16:38 | 45.86664 | -75.57867 | 34680 ft | 396 kts | 288° |
| 2026-04-22 16:38 | 45.87237 | -75.61744 | 35077 ft | 398 kts | 288° |
| 2026-04-22 16:38 | 45.87809 | -75.65630 | 35470 ft | 399 kts | 288° |
| 2026-04-22 16:39 | 45.88384 | -75.69537 | 35869 ft | 401 kts | 287° |
| 2026-04-22 16:39 | 45.88960 | -75.73454 | 36282 ft | 402 kts | 287° |
| 2026-04-22 16:39 | 45.89536 | -75.77394 | 36685 ft | 404 kts | 287° |
| 2026-04-22 16:39 | 45.90112 | -75.81348 | 37103 ft | 405 kts | 286° |
| 2026-04-22 16:40 | 45.90690 | -75.85314 | 37527 ft | 406 kts | 286° |
| 2026-04-22 16:40 | 45.91269 | -75.89289 | 37953 ft | 408 kts | 286° |
| 2026-04-22 16:40 | 45.92735 | -75.97144 | 38748 ft | 407 kts | 294° |
| 2026-04-22 16:41 | 45.93945 | -76.00802 | 39091 ft | 406 kts | 301° |
| 2026-04-22 16:41 | 45.95449 | -76.04162 | 39440 ft | 405 kts | 307° |
| 2026-04-22 16:41 | 45.97263 | -76.07258 | 39784 ft | 406 kts | 314° |
| 2026-04-22 16:41 | 45.99345 | -76.10012 | 40066 ft | 409 kts | 319° |
| 2026-04-22 16:42 | 46.01564 | -76.12659 | 40059 ft | 419 kts | 319° |
| 2026-04-22 16:42 | 46.06136 | -76.18167 | 40067 ft | 438 kts | 319° |
| 2026-04-22 16:43 | 46.10901 | -76.23902 | 40065 ft | 454 kts | 319° |
| 2026-04-22 16:43 | 46.15724 | -76.29728 | 40062 ft | 447 kts | 319° |
| 2026-04-22 16:44 | 46.20524 | -76.35541 | 40066 ft | 452 kts | 319° |
| 2026-04-22 16:44 | 46.25350 | -76.41395 | 40061 ft | 453 kts | 319° |
| 2026-04-22 16:45 | 46.30169 | -76.47258 | 40061 ft | 453 kts | 319° |
| 2026-04-22 16:45 | 46.34991 | -76.53137 | 40063 ft | 453 kts | 319° |
| 2026-04-22 16:46 | 46.39804 | -76.59020 | 40067 ft | 453 kts | 319° |
| 2026-04-22 16:46 | 46.44614 | -76.64913 | 40063 ft | 453 kts | 319° |
| 2026-04-22 16:47 | 46.49417 | -76.70812 | 40066 ft | 453 kts | 319° |
| 2026-04-22 16:47 | 46.54217 | -76.76720 | 40058 ft | 452 kts | 319° |
| 2026-04-22 16:48 | 46.59012 | -76.82637 | 40063 ft | 452 kts | 319° |
| 2026-04-22 16:48 | 46.63800 | -76.88559 | 40062 ft | 452 kts | 319° |
| 2026-04-22 16:49 | 46.68585 | -76.94493 | 40063 ft | 452 kts | 319° |
| 2026-04-22 16:49 | 46.73365 | -77.00433 | 40060 ft | 451 kts | 319° |
| 2026-04-22 16:50 | 46.78136 | -77.06379 | 40061 ft | 451 kts | 319° |
| 2026-04-22 16:50 | 46.82906 | -77.12336 | 40063 ft | 451 kts | 319° |
| 2026-04-22 16:51 | 46.87668 | -77.18298 | 40065 ft | 451 kts | 319° |
| 2026-04-22 16:51 | 46.92423 | -77.24266 | 40064 ft | 451 kts | 319° |
| 2026-04-22 16:52 | 46.97178 | -77.30248 | 40068 ft | 450 kts | 319° |
| 2026-04-22 16:52 | 47.01927 | -77.36237 | 40066 ft | 450 kts | 319° |
| 2026-04-22 16:53 | 47.06638 | -77.42192 | 40060 ft | 450 kts | 318° |
| 2026-04-22 16:53 | 47.11377 | -77.48198 | 40056 ft | 450 kts | 318° |
| 2026-04-22 16:54 | 47.16115 | -77.54218 | 40060 ft | 450 kts | 318° |
| 2026-04-22 16:54 | 47.20847 | -77.60243 | 40061 ft | 450 kts | 318° |
| 2026-04-22 16:55 | 47.25572 | -77.66275 | 40062 ft | 450 kts | 318° |
| 2026-04-22 16:55 | 47.30299 | -77.72325 | 40064 ft | 450 kts | 318° |
| 2026-04-22 16:56 | 47.35018 | -77.78380 | 40065 ft | 450 kts | 318° |
| 2026-04-22 16:56 | 47.39736 | -77.84447 | 40063 ft | 450 kts | 318° |
| 2026-04-22 16:57 | 47.44450 | -77.90525 | 40063 ft | 449 kts | 318° |
| 2026-04-22 16:57 | 47.49156 | -77.96607 | 40066 ft | 449 kts | 318° |
| 2026-04-22 16:58 | 47.53064 | -78.01669 | 40065 ft | 450 kts | 318° |
| 2026-04-22 16:58 | 47.58556 | -78.08801 | 40072 ft | 449 kts | 318° |
| 2026-04-22 16:59 | 47.63247 | -78.14910 | 40074 ft | 449 kts | 318° |
| 2026-04-22 16:59 | 47.67933 | -78.21026 | 40077 ft | 448 kts | 318° |
| 2026-04-22 17:00 | 47.72577 | -78.27104 | 40077 ft | 448 kts | 318° |
| 2026-04-22 17:00 | 47.79580 | -78.36296 | 40086 ft | 447 kts | 318° |
| 2026-04-22 17:01 | 47.84242 | -78.42435 | 40080 ft | 448 kts | 318° |
| 2026-04-22 17:01 | 47.88901 | -78.48585 | 40081 ft | 448 kts | 318° |
| 2026-04-22 17:02 | 47.93558 | -78.54748 | 40085 ft | 447 kts | 318° |
| 2026-04-22 17:02 | 47.98205 | -78.60913 | 40086 ft | 447 kts | 318° |
| 2026-04-22 17:03 | 48.02846 | -78.67086 | 40080 ft | 447 kts | 318° |
| 2026-04-22 17:03 | 48.07485 | -78.73272 | 40077 ft | 447 kts | 318° |
| 2026-04-22 17:04 | 48.12119 | -78.79465 | 40071 ft | 447 kts | 317° |
| 2026-04-22 17:04 | 48.16748 | -78.85670 | 40071 ft | 446 kts | 317° |
| 2026-04-22 17:05 | 48.21370 | -78.91879 | 40074 ft | 446 kts | 317° |
| 2026-04-22 17:05 | 48.25987 | -78.98098 | 40075 ft | 446 kts | 317° |
| 2026-04-22 17:06 | 48.30598 | -79.04324 | 40077 ft | 446 kts | 317° |
| 2026-04-22 17:06 | 48.35204 | -79.10559 | 40082 ft | 446 kts | 317° |
| 2026-04-22 17:07 | 48.39808 | -79.16808 | 40089 ft | 446 kts | 317° |
| 2026-04-22 17:07 | 48.44413 | -79.23073 | 40091 ft | 446 kts | 317° |
| 2026-04-22 17:08 | 48.49010 | -79.29344 | 40091 ft | 446 kts | 317° |
| 2026-04-22 17:08 | 48.53603 | -79.35627 | 40091 ft | 446 kts | 317° |
| 2026-04-22 17:09 | 48.58190 | -79.41915 | 40092 ft | 446 kts | 317° |
| 2026-04-22 17:09 | 48.62783 | -79.48229 | 40084 ft | 449 kts | 316° |
| 2026-04-22 17:10 | 48.67397 | -79.54589 | 40087 ft | 448 kts | 316° |
| 2026-04-22 17:10 | 48.72004 | -79.60953 | 40086 ft | 448 kts | 316° |
| 2026-04-22 17:11 | 48.76609 | -79.67334 | 40089 ft | 448 kts | 316° |
| 2026-04-22 17:11 | 48.81177 | -79.73678 | 40090 ft | 448 kts | 316° |
| 2026-04-22 17:12 | 48.85772 | -79.80077 | 40089 ft | 448 kts | 316° |
| 2026-04-22 17:12 | 48.90358 | -79.86480 | 40090 ft | 448 kts | 316° |
| 2026-04-22 17:13 | 48.94949 | -79.92906 | 40085 ft | 448 kts | 316° |
| 2026-04-22 17:13 | 48.99259 | -79.99729 | 40082 ft | 447 kts | 307° |
| 2026-04-22 17:14 | 49.02426 | -80.07876 | 40076 ft | 448 kts | 296° |
| 2026-04-22 17:14 | 49.05061 | -80.16490 | 40090 ft | 449 kts | 296° |
| 2026-04-22 17:15 | 49.07258 | -80.23648 | 40083 ft | 448 kts | 296° |
| 2026-04-22 17:15 | 49.09875 | -80.32273 | 40090 ft | 448 kts | 296° |
| 2026-04-22 17:16 | 49.12501 | -80.40906 | 40087 ft | 448 kts | 296° |
| 2026-04-22 17:16 | 49.15109 | -80.49539 | 40093 ft | 448 kts | 296° |
| 2026-04-22 17:17 | 49.17714 | -80.58178 | 40090 ft | 447 kts | 296° |
| 2026-04-22 17:17 | 49.20306 | -80.66812 | 40093 ft | 447 kts | 296° |
| 2026-04-22 17:18 | 49.22893 | -80.75455 | 40095 ft | 447 kts | 296° |
| 2026-04-22 17:18 | 49.25473 | -80.84108 | 40095 ft | 447 kts | 296° |
| 2026-04-22 17:19 | 49.30610 | -81.01428 | 40097 ft | 446 kts | 296° |
| 2026-04-22 17:20 | 49.35715 | -81.18760 | 40103 ft | 446 kts | 296° |
| 2026-04-22 17:21 | 49.39529 | -81.31792 | 40105 ft | 446 kts | 296° |
| 2026-04-22 17:22 | 49.43326 | -81.44837 | 40103 ft | 446 kts | 296° |
| 2026-04-22 17:23 | 49.47110 | -81.57905 | 40099 ft | 446 kts | 296° |
| 2026-04-22 17:23 | 49.50876 | -81.70985 | 40100 ft | 446 kts | 296° |
| 2026-04-22 17:24 | 49.53376 | -81.79710 | 40105 ft | 445 kts | 296° |
| 2026-04-22 17:24 | 49.55872 | -81.88448 | 40099 ft | 446 kts | 296° |
| 2026-04-22 17:25 | 49.58359 | -81.97187 | 40101 ft | 445 kts | 295° |
| 2026-04-22 17:25 | 49.60838 | -82.05932 | 40096 ft | 445 kts | 295° |
| 2026-04-22 17:26 | 49.63310 | -82.14684 | 40094 ft | 445 kts | 295° |
| 2026-04-22 17:26 | 49.65759 | -82.23384 | 40096 ft | 445 kts | 295° |
| 2026-04-22 17:27 | 49.68217 | -82.32153 | 40098 ft | 445 kts | 295° |
| 2026-04-22 17:27 | 49.70667 | -82.40924 | 40103 ft | 445 kts | 295° |
| 2026-04-22 17:28 | 49.73110 | -82.49700 | 40105 ft | 445 kts | 295° |
| 2026-04-22 17:28 | 49.75547 | -82.58488 | 40106 ft | 444 kts | 295° |
| 2026-04-22 17:29 | 49.77976 | -82.67283 | 40104 ft | 444 kts | 295° |
| 2026-04-22 17:29 | 49.80397 | -82.76080 | 40105 ft | 444 kts | 295° |
| 2026-04-22 17:30 | 49.82811 | -82.84885 | 40109 ft | 444 kts | 295° |
| 2026-04-22 17:30 | 49.85220 | -82.93701 | 40093 ft | 444 kts | 295° |
| 2026-04-22 17:31 | 49.87619 | -83.02518 | 40107 ft | 444 kts | 295° |
| 2026-04-22 17:31 | 49.90011 | -83.11344 | 40107 ft | 444 kts | 295° |
| 2026-04-22 17:32 | 49.92398 | -83.20179 | 40103 ft | 444 kts | 295° |
| 2026-04-22 17:32 | 49.94775 | -83.29016 | 40096 ft | 444 kts | 295° |
| 2026-04-22 17:33 | 49.97145 | -83.37857 | 40103 ft | 443 kts | 295° |
| 2026-04-22 17:33 | 49.99492 | -83.46651 | 40101 ft | 443 kts | 295° |
| 2026-04-22 17:34 | 50.01847 | -83.55502 | 40101 ft | 443 kts | 295° |
| 2026-04-22 17:34 | 50.04193 | -83.64356 | 40097 ft | 443 kts | 295° |
| 2026-04-22 17:35 | 50.06532 | -83.73222 | 40096 ft | 443 kts | 295° |
| 2026-04-22 17:35 | 50.08864 | -83.82088 | 40097 ft | 443 kts | 295° |
| 2026-04-22 17:36 | 50.11187 | -83.90959 | 40093 ft | 442 kts | 294° |
| 2026-04-22 17:36 | 50.13504 | -83.99840 | 40093 ft | 442 kts | 294° |
| 2026-04-22 17:37 | 50.15811 | -84.08720 | 40092 ft | 441 kts | 294° |
| 2026-04-22 17:37 | 50.18108 | -84.17592 | 40094 ft | 441 kts | 294° |
| 2026-04-22 17:38 | 50.20396 | -84.26464 | 40102 ft | 440 kts | 294° |
| 2026-04-22 17:38 | 50.22676 | -84.35341 | 40097 ft | 440 kts | 294° |
| 2026-04-22 17:39 | 50.24946 | -84.44214 | 40097 ft | 440 kts | 294° |
| 2026-04-22 17:40 | 50.28336 | -84.57530 | 40094 ft | 439 kts | 294° |
| 2026-04-22 17:40 | 50.30585 | -84.66407 | 40099 ft | 439 kts | 294° |
| 2026-04-22 17:41 | 50.32826 | -84.75291 | 40097 ft | 439 kts | 294° |
| 2026-04-22 17:41 | 50.35058 | -84.84173 | 40098 ft | 438 kts | 294° |
| 2026-04-22 17:42 | 50.37283 | -84.93059 | 40096 ft | 438 kts | 294° |
| 2026-04-22 17:42 | 50.39496 | -85.01935 | 40103 ft | 437 kts | 294° |
| 2026-04-22 17:43 | 50.41700 | -85.10808 | 40099 ft | 437 kts | 294° |
| 2026-04-22 17:43 | 50.43895 | -85.19686 | 40103 ft | 436 kts | 294° |
| 2026-04-22 17:44 | 50.46081 | -85.28558 | 40101 ft | 436 kts | 294° |
| 2026-04-22 17:44 | 50.48259 | -85.37432 | 40105 ft | 435 kts | 294° |
| 2026-04-22 17:45 | 50.50428 | -85.46307 | 40105 ft | 435 kts | 294° |
| 2026-04-22 17:45 | 50.52589 | -85.55187 | 40108 ft | 435 kts | 294° |
| 2026-04-22 17:46 | 50.54742 | -85.64065 | 40109 ft | 435 kts | 294° |
| 2026-04-22 17:46 | 50.56886 | -85.72949 | 40107 ft | 434 kts | 294° |
| 2026-04-22 17:47 | 50.59021 | -85.81826 | 40107 ft | 434 kts | 294° |
| 2026-04-22 17:47 | 50.61134 | -85.90648 | 40104 ft | 433 kts | 294° |
| 2026-04-22 17:48 | 50.62907 | -85.98079 | 40101 ft | 433 kts | 293° |
| 2026-04-22 17:48 | 50.65356 | -86.08385 | 40101 ft | 432 kts | 293° |
| 2026-04-22 17:49 | 50.67453 | -86.17249 | 40103 ft | 431 kts | 293° |
| 2026-04-22 17:49 | 50.69542 | -86.26116 | 40104 ft | 431 kts | 293° |
| 2026-04-22 17:50 | 50.71621 | -86.34976 | 40097 ft | 431 kts | 293° |
| 2026-04-22 17:50 | 50.73692 | -86.43838 | 40100 ft | 430 kts | 293° |
| 2026-04-22 17:51 | 50.75754 | -86.52700 | 40101 ft | 430 kts | 293° |
| 2026-04-22 17:51 | 50.77807 | -86.61560 | 40101 ft | 429 kts | 293° |
| 2026-04-22 17:52 | 50.79853 | -86.70424 | 40102 ft | 429 kts | 292° |
| 2026-04-22 17:52 | 50.81888 | -86.79281 | 40099 ft | 428 kts | 292° |
| 2026-04-22 17:53 | 50.83915 | -86.88136 | 40097 ft | 428 kts | 292° |
| 2026-04-22 17:53 | 50.85935 | -86.96998 | 40095 ft | 428 kts | 292° |
| 2026-04-22 17:54 | 50.87947 | -87.05863 | 40100 ft | 428 kts | 292° |
| 2026-04-22 17:54 | 50.89951 | -87.14730 | 40096 ft | 428 kts | 292° |
| 2026-04-22 17:55 | 50.91612 | -87.22107 | 40099 ft | 428 kts | 292° |
| 2026-04-22 17:55 | 50.93938 | -87.32483 | 40093 ft | 427 kts | 292° |
| 2026-04-22 17:56 | 50.95921 | -87.41369 | 40093 ft | 427 kts | 292° |
| 2026-04-22 17:56 | 50.97883 | -87.50197 | 40092 ft | 427 kts | 291° |
| 2026-04-22 17:57 | 50.99851 | -87.59093 | 40093 ft | 427 kts | 291° |
| 2026-04-22 17:57 | 51.01814 | -87.68005 | 40088 ft | 427 kts | 291° |
| 2026-04-22 17:58 | 51.03770 | -87.76921 | 40089 ft | 428 kts | 291° |
| 2026-04-22 17:58 | 51.05719 | -87.85844 | 40088 ft | 427 kts | 291° |
| 2026-04-22 17:59 | 51.07662 | -87.94777 | 40091 ft | 428 kts | 291° |
| 2026-04-22 17:59 | 51.09598 | -88.03717 | 40086 ft | 427 kts | 291° |
| 2026-04-22 18:00 | 51.11215 | -88.11212 | 40102 ft | 427 kts | 291° |
| 2026-04-22 18:00 | 51.13449 | -88.21619 | 40083 ft | 427 kts | 291° |
| 2026-04-22 18:01 | 51.15364 | -88.30577 | 40079 ft | 428 kts | 291° |
| 2026-04-22 18:01 | 51.17273 | -88.39552 | 40075 ft | 428 kts | 290° |
| 2026-04-22 18:02 | 51.18856 | -88.47020 | 40077 ft | 428 kts | 290° |
| 2026-04-22 18:02 | 51.20754 | -88.56014 | 40068 ft | 428 kts | 290° |
| 2026-04-22 18:03 | 51.22646 | -88.65021 | 40062 ft | 428 kts | 290° |
| 2026-04-22 18:03 | 51.24531 | -88.74031 | 40058 ft | 428 kts | 290° |
| 2026-04-22 18:04 | 51.26409 | -88.83051 | 40059 ft | 428 kts | 290° |
| 2026-04-22 18:04 | 51.28281 | -88.92080 | 40062 ft | 428 kts | 290° |
| 2026-04-22 18:05 | 51.30145 | -89.01113 | 40059 ft | 428 kts | 290° |
| 2026-04-22 18:05 | 51.32004 | -89.10165 | 40057 ft | 429 kts | 290° |
| 2026-04-22 18:06 | 51.33858 | -89.19228 | 40054 ft | 429 kts | 290° |
| 2026-04-22 18:06 | 51.35704 | -89.28299 | 40053 ft | 429 kts | 289° |
| 2026-04-22 18:07 | 51.37544 | -89.37381 | 40050 ft | 429 kts | 289° |
| 2026-04-22 18:07 | 51.39379 | -89.46480 | 40047 ft | 429 kts | 289° |
| 2026-04-22 18:08 | 51.41206 | -89.55582 | 40041 ft | 430 kts | 289° |
| 2026-04-22 18:08 | 51.43028 | -89.64702 | 40037 ft | 430 kts | 289° |
| 2026-04-22 18:09 | 51.44843 | -89.73826 | 40031 ft | 430 kts | 289° |
| 2026-04-22 18:09 | 51.46651 | -89.82961 | 40021 ft | 430 kts | 289° |
| 2026-04-22 18:10 | 51.48454 | -89.92112 | 40014 ft | 430 kts | 289° |
| 2026-04-22 18:10 | 51.50098 | -90.01274 | 40000 ft | 432 kts | 283° |
| 2026-04-22 18:11 | 51.50996 | -90.10830 | 39996 ft | 433 kts | 281° |
| 2026-04-22 18:11 | 51.51894 | -90.20391 | 40000 ft | 433 kts | 281° |
| 2026-04-22 18:12 | 51.52756 | -90.29961 | 40001 ft | 433 kts | 281° |
| 2026-04-22 18:12 | 51.53627 | -90.39533 | 40003 ft | 433 kts | 281° |
| 2026-04-22 18:13 | 51.54481 | -90.49113 | 40004 ft | 433 kts | 281° |
| 2026-04-22 18:13 | 51.55332 | -90.58700 | 40010 ft | 433 kts | 280° |
| 2026-04-22 18:14 | 51.56174 | -90.68288 | 40010 ft | 434 kts | 280° |
| 2026-04-22 18:14 | 51.57009 | -90.77887 | 40016 ft | 434 kts | 280° |
| 2026-04-22 18:15 | 51.57836 | -90.87493 | 40014 ft | 434 kts | 280° |
| 2026-04-22 18:15 | 51.58655 | -90.97097 | 40003 ft | 434 kts | 280° |
| 2026-04-22 18:16 | 51.59466 | -91.06710 | 40006 ft | 433 kts | 280° |
| 2026-04-22 18:16 | 51.60270 | -91.16325 | 40008 ft | 434 kts | 280° |
| 2026-04-22 18:17 | 51.61061 | -91.25881 | 40002 ft | 434 kts | 279° |
| 2026-04-22 18:17 | 51.61848 | -91.35504 | 40000 ft | 434 kts | 279° |
| 2026-04-22 18:18 | 51.62629 | -91.45131 | 39997 ft | 434 kts | 279° |
| 2026-04-22 18:18 | 51.63401 | -91.54767 | 39994 ft | 434 kts | 279° |
| 2026-04-22 18:19 | 51.64166 | -91.64399 | 39989 ft | 434 kts | 279° |
| 2026-04-22 18:19 | 51.64923 | -91.74043 | 39987 ft | 434 kts | 279° |
| 2026-04-22 18:20 | 51.65673 | -91.83697 | 39980 ft | 434 kts | 279° |
| 2026-04-22 18:20 | 51.66414 | -91.93349 | 39982 ft | 435 kts | 279° |
| 2026-04-22 18:21 | 51.67148 | -92.03016 | 39971 ft | 435 kts | 279° |
| 2026-04-22 18:21 | 51.67875 | -92.12691 | 39966 ft | 435 kts | 279° |
| 2026-04-22 18:22 | 51.68594 | -92.22361 | 39960 ft | 435 kts | 279° |
| 2026-04-22 18:22 | 51.69304 | -92.32036 | 39959 ft | 435 kts | 279° |
| 2026-04-22 18:23 | 51.70007 | -92.41727 | 39952 ft | 435 kts | 278° |
| 2026-04-22 18:23 | 51.70703 | -92.51425 | 39950 ft | 435 kts | 278° |
| 2026-04-22 18:24 | 51.71727 | -92.65916 | 39945 ft | 435 kts | 278° |
| 2026-04-22 18:25 | 51.72739 | -92.80482 | 39935 ft | 436 kts | 278° |
| 2026-04-22 18:25 | 51.73403 | -92.90201 | 39933 ft | 436 kts | 278° |
| 2026-04-22 18:26 | 51.74386 | -93.04799 | 39935 ft | 436 kts | 278° |
| 2026-04-22 18:26 | 51.75031 | -93.14537 | 39925 ft | 436 kts | 278° |
| 2026-04-22 18:27 | 51.75669 | -93.24285 | 39925 ft | 437 kts | 278° |
| 2026-04-22 18:27 | 51.76298 | -93.34037 | 39923 ft | 437 kts | 278° |
| 2026-04-22 18:28 | 51.76920 | -93.43794 | 39920 ft | 437 kts | 278° |
| 2026-04-22 18:28 | 51.77534 | -93.53558 | 39915 ft | 437 kts | 277° |
| 2026-04-22 18:29 | 51.78141 | -93.63337 | 39913 ft | 437 kts | 277° |
| 2026-04-22 18:29 | 51.78739 | -93.73114 | 39914 ft | 438 kts | 277° |
| 2026-04-22 18:30 | 51.79621 | -93.87794 | 39906 ft | 438 kts | 277° |
| 2026-04-22 18:31 | 51.80199 | -93.97584 | 39903 ft | 438 kts | 277° |
| 2026-04-22 18:31 | 51.80771 | -94.07392 | 39899 ft | 438 kts | 277° |
| 2026-04-22 18:32 | 51.81333 | -94.17196 | 39895 ft | 438 kts | 277° |
| 2026-04-22 18:32 | 51.81884 | -94.26940 | 39898 ft | 439 kts | 277° |
| 2026-04-22 18:33 | 51.82435 | -94.36829 | 39889 ft | 439 kts | 277° |
| 2026-04-22 18:33 | 51.82969 | -94.46585 | 39890 ft | 439 kts | 276° |
| 2026-04-22 18:34 | 51.83501 | -94.56414 | 39887 ft | 439 kts | 276° |
| 2026-04-22 18:34 | 51.84023 | -94.66243 | 39882 ft | 439 kts | 276° |
| 2026-04-22 18:35 | 51.84537 | -94.76081 | 39884 ft | 439 kts | 276° |
| 2026-04-22 18:35 | 51.85043 | -94.85914 | 39884 ft | 439 kts | 276° |
| 2026-04-22 18:36 | 51.85541 | -94.95751 | 39878 ft | 439 kts | 276° |
| 2026-04-22 18:36 | 51.86031 | -95.05592 | 39879 ft | 439 kts | 276° |
| 2026-04-22 18:37 | 51.86512 | -95.15427 | 39875 ft | 439 kts | 276° |
| 2026-04-22 18:37 | 51.86906 | -95.23599 | 39875 ft | 438 kts | 275° |
| 2026-04-22 18:38 | 51.87450 | -95.35103 | 39868 ft | 439 kts | 275° |
| 2026-04-22 18:38 | 51.87906 | -95.44939 | 39869 ft | 438 kts | 275° |
| 2026-04-22 18:39 | 51.88576 | -95.59706 | 39865 ft | 438 kts | 275° |
| 2026-04-22 18:39 | 51.89012 | -95.69549 | 39860 ft | 438 kts | 275° |
| 2026-04-22 18:40 | 51.89436 | -95.79316 | 39856 ft | 438 kts | 275° |
| 2026-04-22 18:40 | 51.89855 | -95.89146 | 39850 ft | 438 kts | 275° |
| 2026-04-22 18:41 | 51.90266 | -95.98980 | 39845 ft | 437 kts | 274° |
| 2026-04-22 18:41 | 51.90668 | -96.08806 | 39839 ft | 437 kts | 274° |
| 2026-04-22 18:42 | 51.91062 | -96.18633 | 39833 ft | 437 kts | 274° |
| 2026-04-22 18:42 | 51.91448 | -96.28467 | 39830 ft | 437 kts | 274° |
| 2026-04-22 18:43 | 51.91825 | -96.38303 | 39829 ft | 437 kts | 274° |
| 2026-04-22 18:43 | 51.92194 | -96.48133 | 39824 ft | 437 kts | 274° |
| 2026-04-22 18:44 | 51.92556 | -96.57962 | 39825 ft | 437 kts | 274° |
| 2026-04-22 18:44 | 51.92909 | -96.67802 | 39821 ft | 437 kts | 274° |
| 2026-04-22 18:45 | 51.93253 | -96.77639 | 39822 ft | 437 kts | 273° |
| 2026-04-22 18:45 | 51.93590 | -96.87486 | 39821 ft | 437 kts | 273° |
| 2026-04-22 18:46 | 51.93919 | -96.97333 | 39820 ft | 438 kts | 273° |
| 2026-04-22 18:46 | 51.94239 | -97.07178 | 39821 ft | 437 kts | 273° |
| 2026-04-22 18:47 | 51.94551 | -97.17029 | 39826 ft | 438 kts | 273° |
| 2026-04-22 18:47 | 51.94856 | -97.26890 | 39828 ft | 438 kts | 272° |
| 2026-04-22 18:48 | 51.95150 | -97.36700 | 39828 ft | 439 kts | 272° |
| 2026-04-22 18:48 | 51.95438 | -97.46579 | 39832 ft | 439 kts | 272° |
| 2026-04-22 18:49 | 51.95718 | -97.56466 | 39834 ft | 439 kts | 272° |
| 2026-04-22 18:49 | 51.95991 | -97.66367 | 39836 ft | 440 kts | 272° |
| 2026-04-22 18:50 | 51.96255 | -97.76273 | 39835 ft | 440 kts | 272° |
| 2026-04-22 18:50 | 51.96511 | -97.86187 | 39838 ft | 440 kts | 272° |
| 2026-04-22 18:51 | 51.96759 | -97.96117 | 39840 ft | 441 kts | 272° |
| 2026-04-22 18:51 | 51.96998 | -98.06048 | 39843 ft | 441 kts | 272° |
| 2026-04-22 18:52 | 51.97191 | -98.14309 | 39841 ft | 441 kts | 271° |
| 2026-04-22 18:52 | 51.97416 | -98.24262 | 39844 ft | 442 kts | 271° |
| 2026-04-22 18:53 | 51.97632 | -98.34215 | 39840 ft | 442 kts | 271° |
| 2026-04-22 18:53 | 51.97840 | -98.44168 | 39839 ft | 442 kts | 271° |
| 2026-04-22 18:54 | 51.98040 | -98.54133 | 39836 ft | 442 kts | 271° |
| 2026-04-22 18:54 | 51.98231 | -98.64098 | 39834 ft | 442 kts | 271° |
| 2026-04-22 18:55 | 51.98414 | -98.74069 | 39834 ft | 442 kts | 271° |
| 2026-04-22 18:55 | 51.98589 | -98.84052 | 39835 ft | 443 kts | 271° |
| 2026-04-22 18:56 | 51.98755 | -98.94030 | 39830 ft | 443 kts | 271° |
| 2026-04-22 18:56 | 51.98913 | -99.04012 | 39830 ft | 443 kts | 271° |
| 2026-04-22 18:57 | 51.99062 | -99.13996 | 39831 ft | 443 kts | 270° |
| 2026-04-22 18:57 | 51.99204 | -99.23988 | 39831 ft | 443 kts | 270° |
| 2026-04-22 18:58 | 51.99336 | -99.33972 | 39831 ft | 443 kts | 270° |
| 2026-04-22 18:58 | 51.99460 | -99.43959 | 39832 ft | 442 kts | 270° |
| 2026-04-22 18:59 | 51.99576 | -99.53933 | 39830 ft | 442 kts | 270° |
| 2026-04-22 18:59 | 51.99683 | -99.63903 | 39829 ft | 442 kts | 270° |
| 2026-04-22 19:00 | 51.99781 | -99.73862 | 39833 ft | 441 kts | 270° |
| 2026-04-22 19:00 | 51.99871 | -99.83816 | 39838 ft | 441 kts | 270° |
| 2026-04-22 19:01 | 51.99953 | -99.93759 | 39837 ft | 441 kts | 270° |
| 2026-04-22 19:01 | 51.99978 | -100.03689 | 39840 ft | 440 kts | 268° |
| 2026-04-22 19:02 | 51.99914 | -100.13617 | 39849 ft | 440 kts | 268° |
| 2026-04-22 19:02 | 51.99844 | -100.23526 | 39859 ft | 439 kts | 268° |
| 2026-04-22 19:03 | 51.99763 | -100.33421 | 39863 ft | 438 kts | 268° |
| 2026-04-22 19:03 | 51.99676 | -100.43318 | 39870 ft | 438 kts | 268° |
| 2026-04-22 19:04 | 51.99580 | -100.53136 | 39872 ft | 438 kts | 268° |
| 2026-04-22 19:04 | 51.99476 | -100.63028 | 39874 ft | 438 kts | 268° |
| 2026-04-22 19:05 | 51.99363 | -100.72903 | 39878 ft | 438 kts | 267° |
| 2026-04-22 19:05 | 51.99242 | -100.82776 | 39879 ft | 438 kts | 267° |
| 2026-04-22 19:06 | 51.99113 | -100.92640 | 39878 ft | 437 kts | 267° |
| 2026-04-22 19:07 | 51.98904 | -101.07441 | 39882 ft | 438 kts | 267° |
| 2026-04-22 19:07 | 51.98755 | -101.17311 | 39877 ft | 438 kts | 267° |
| 2026-04-22 19:08 | 51.98596 | -101.27192 | 39877 ft | 438 kts | 266° |
| 2026-04-22 19:08 | 51.98430 | -101.37071 | 39873 ft | 438 kts | 266° |
| 2026-04-22 19:09 | 51.98255 | -101.46951 | 39876 ft | 438 kts | 266° |
| 2026-04-22 19:09 | 51.98072 | -101.56846 | 39869 ft | 439 kts | 266° |
| 2026-04-22 19:10 | 51.97881 | -101.66748 | 39868 ft | 440 kts | 266° |
| 2026-04-22 19:10 | 51.97680 | -101.76667 | 39864 ft | 440 kts | 266° |
| 2026-04-22 19:11 | 51.97473 | -101.86531 | 39862 ft | 441 kts | 266° |
| 2026-04-22 19:11 | 51.97254 | -101.96531 | 39856 ft | 441 kts | 266° |
| 2026-04-22 19:12 | 51.97029 | -102.06417 | 39849 ft | 441 kts | 265° |
| 2026-04-22 19:12 | 51.96793 | -102.16440 | 39846 ft | 442 kts | 265° |
| 2026-04-22 19:13 | 51.96551 | -102.26345 | 39847 ft | 443 kts | 265° |
| 2026-04-22 19:13 | 51.96299 | -102.36318 | 39840 ft | 443 kts | 265° |
| 2026-04-22 19:14 | 51.96038 | -102.46301 | 39836 ft | 443 kts | 265° |
| 2026-04-22 19:14 | 51.95769 | -102.56298 | 39833 ft | 444 kts | 265° |
| 2026-04-22 19:15 | 51.95542 | -102.64584 | 39847 ft | 422 kts | 265° |
| 2026-04-22 19:15 | 51.95377 | -102.70603 | 40210 ft | 390 kts | 264° |
| 2026-04-22 19:15 | 51.95243 | -102.75019 | 40283 ft | 397 kts | 264° |
| 2026-04-22 19:15 | 51.95106 | -102.79520 | 40386 ft | 402 kts | 264° |
| 2026-04-22 19:16 | 51.94975 | -102.84054 | 40496 ft | 403 kts | 265° |
| 2026-04-22 19:16 | 51.94843 | -102.88597 | 40618 ft | 404 kts | 264° |
| 2026-04-22 19:16 | 51.94704 | -102.93153 | 40733 ft | 405 kts | 264° |
| 2026-04-22 19:16 | 51.94562 | -102.97715 | 40860 ft | 406 kts | 264° |
| 2026-04-22 19:17 | 51.94419 | -103.02287 | 40985 ft | 407 kts | 264° |
| 2026-04-22 19:17 | 51.94276 | -103.06875 | 41106 ft | 408 kts | 264° |
| 2026-04-22 19:17 | 51.94130 | -103.11472 | 41229 ft | 409 kts | 264° |
| 2026-04-22 19:17 | 51.93981 | -103.16072 | 41351 ft | 410 kts | 264° |
| 2026-04-22 19:18 | 51.93830 | -103.20689 | 41475 ft | 411 kts | 264° |
| 2026-04-22 19:18 | 51.93677 | -103.25312 | 41599 ft | 412 kts | 264° |
| 2026-04-22 19:18 | 51.93522 | -103.29950 | 41718 ft | 414 kts | 264° |
| 2026-04-22 19:19 | 51.93196 | -103.39466 | 41788 ft | 433 kts | 264° |
| 2026-04-22 19:19 | 51.92850 | -103.49437 | 41783 ft | 451 kts | 264° |
| 2026-04-22 19:20 | 51.92486 | -103.59638 | 41773 ft | 455 kts | 264° |
| 2026-04-22 19:20 | 51.92111 | -103.69875 | 41770 ft | 456 kts | 264° |
| 2026-04-22 19:21 | 51.91726 | -103.80133 | 41764 ft | 456 kts | 264° |
| 2026-04-22 19:21 | 51.91332 | -103.90397 | 41759 ft | 457 kts | 264° |
| 2026-04-22 19:22 | 51.90929 | -104.00669 | 41761 ft | 457 kts | 264° |
| 2026-04-22 19:22 | 51.90516 | -104.10957 | 41752 ft | 458 kts | 264° |
| 2026-04-22 19:23 | 51.90094 | -104.21244 | 41749 ft | 458 kts | 264° |
| 2026-04-22 19:23 | 51.89666 | -104.31467 | 41746 ft | 458 kts | 264° |
| 2026-04-22 19:24 | 51.89225 | -104.41773 | 41738 ft | 459 kts | 264° |
| 2026-04-22 19:24 | 51.88776 | -104.52076 | 41734 ft | 459 kts | 263° |
| 2026-04-22 19:25 | 51.88317 | -104.62390 | 41723 ft | 459 kts | 263° |
| 2026-04-22 19:25 | 51.87848 | -104.72706 | 41714 ft | 460 kts | 263° |
| 2026-04-22 19:26 | 51.87370 | -104.83028 | 41707 ft | 460 kts | 263° |
| 2026-04-22 19:26 | 51.86882 | -104.93365 | 41698 ft | 461 kts | 263° |
| 2026-04-22 19:27 | 51.86386 | -105.03704 | 41694 ft | 461 kts | 263° |
| 2026-04-22 19:27 | 51.85879 | -105.14050 | 41684 ft | 462 kts | 263° |
| 2026-04-22 19:28 | 51.85363 | -105.24403 | 41682 ft | 462 kts | 263° |
| 2026-04-22 19:28 | 51.84837 | -105.34771 | 41674 ft | 463 kts | 263° |
| 2026-04-22 19:29 | 51.84302 | -105.45140 | 41661 ft | 463 kts | 263° |
| 2026-04-22 19:29 | 51.83756 | -105.55519 | 41663 ft | 463 kts | 263° |
| 2026-04-22 19:30 | 51.83296 | -105.64151 | 41659 ft | 464 kts | 263° |
| 2026-04-22 19:30 | 51.82642 | -105.76221 | 41651 ft | 464 kts | 262° |
| 2026-04-22 19:31 | 51.82067 | -105.86619 | 41644 ft | 464 kts | 262° |
| 2026-04-22 19:31 | 51.81485 | -105.97014 | 41635 ft | 465 kts | 262° |
| 2026-04-22 19:32 | 51.80891 | -106.07423 | 41625 ft | 465 kts | 262° |
| 2026-04-22 19:32 | 51.80289 | -106.17828 | 41618 ft | 466 kts | 262° |
| 2026-04-22 19:33 | 51.79677 | -106.28240 | 41608 ft | 466 kts | 262° |
| 2026-04-22 19:33 | 51.79055 | -106.38655 | 41594 ft | 466 kts | 262° |
| 2026-04-22 19:34 | 51.78424 | -106.49081 | 41594 ft | 467 kts | 262° |
| 2026-04-22 19:34 | 51.77783 | -106.59502 | 41581 ft | 467 kts | 262° |
| 2026-04-22 19:35 | 51.77132 | -106.69934 | 41572 ft | 467 kts | 262° |
| 2026-04-22 19:35 | 51.76583 | -106.78609 | 41572 ft | 467 kts | 262° |
| 2026-04-22 19:36 | 51.75802 | -106.90797 | 41573 ft | 467 kts | 262° |
| 2026-04-22 19:36 | 51.75123 | -107.01230 | 41581 ft | 468 kts | 262° |
| 2026-04-22 19:37 | 51.74434 | -107.11663 | 41570 ft | 468 kts | 261° |
| 2026-04-22 19:37 | 51.73741 | -107.22032 | 41577 ft | 468 kts | 261° |
| 2026-04-22 19:38 | 51.73033 | -107.32463 | 41573 ft | 468 kts | 261° |
| 2026-04-22 19:38 | 51.72316 | -107.42900 | 41577 ft | 468 kts | 261° |
| 2026-04-22 19:39 | 51.71585 | -107.53400 | 41572 ft | 468 kts | 261° |
| 2026-04-22 19:39 | 51.70854 | -107.63766 | 41571 ft | 468 kts | 261° |
| 2026-04-22 19:40 | 51.70230 | -107.72499 | 41574 ft | 468 kts | 261° |
| 2026-04-22 19:40 | 51.69354 | -107.84622 | 41566 ft | 468 kts | 261° |
| 2026-04-22 19:41 | 51.68715 | -107.93353 | 41564 ft | 469 kts | 261° |
| 2026-04-22 19:41 | 51.67944 | -108.03775 | 41557 ft | 468 kts | 261° |
| 2026-04-22 19:42 | 51.67162 | -108.14205 | 41549 ft | 469 kts | 261° |
| 2026-04-22 19:42 | 51.66372 | -108.24626 | 41544 ft | 469 kts | 260° |
| 2026-04-22 19:43 | 51.65174 | -108.40191 | 41536 ft | 469 kts | 260° |
| 2026-04-22 19:43 | 51.64359 | -108.50612 | 41529 ft | 469 kts | 260° |
| 2026-04-22 19:44 | 51.63536 | -108.61037 | 41526 ft | 470 kts | 260° |
| 2026-04-22 19:44 | 51.62702 | -108.71462 | 41513 ft | 470 kts | 260° |
| 2026-04-22 19:45 | 51.61859 | -108.81892 | 41497 ft | 470 kts | 259° |
| 2026-04-22 19:45 | 51.61005 | -108.92320 | 41485 ft | 471 kts | 259° |
| 2026-04-22 19:46 | 51.60141 | -109.02777 | 41471 ft | 471 kts | 259° |
| 2026-04-22 19:46 | 51.59268 | -109.13214 | 41467 ft | 471 kts | 259° |
| 2026-04-22 19:47 | 51.58386 | -109.23655 | 41465 ft | 472 kts | 259° |
| 2026-04-22 19:47 | 51.57492 | -109.34108 | 41472 ft | 472 kts | 259° |
| 2026-04-22 19:48 | 51.56590 | -109.44556 | 41475 ft | 472 kts | 259° |
| 2026-04-22 19:48 | 51.55678 | -109.55000 | 41491 ft | 472 kts | 259° |
| 2026-04-22 19:49 | 51.54762 | -109.65385 | 41496 ft | 472 kts | 259° |
| 2026-04-22 19:49 | 51.53830 | -109.75832 | 41510 ft | 473 kts | 259° |
| 2026-04-22 19:50 | 51.52889 | -109.86282 | 41506 ft | 473 kts | 259° |
| 2026-04-22 19:50 | 51.51932 | -109.96801 | 41515 ft | 473 kts | 259° |
| 2026-04-22 19:51 | 51.51653 | -110.07316 | 41518 ft | 477 kts | 267° |
| 2026-04-22 19:51 | 51.51652 | -110.17958 | 41521 ft | 476 kts | 266° |
| 2026-04-22 19:52 | 51.51644 | -110.28597 | 41525 ft | 477 kts | 267° |
| 2026-04-22 19:52 | 51.51633 | -110.39242 | 41527 ft | 476 kts | 266° |
| 2026-04-22 19:53 | 51.51604 | -110.49877 | 41537 ft | 477 kts | 266° |
| 2026-04-22 19:53 | 51.51573 | -110.60520 | 41544 ft | 476 kts | 266° |
| 2026-04-22 19:54 | 51.51527 | -110.71152 | 41549 ft | 476 kts | 266° |
| 2026-04-22 19:54 | 51.51475 | -110.81782 | 41553 ft | 476 kts | 266° |
| 2026-04-22 19:55 | 51.51410 | -110.92420 | 41562 ft | 476 kts | 266° |
| 2026-04-22 19:55 | 51.51338 | -111.03051 | 41565 ft | 476 kts | 266° |
| 2026-04-22 19:56 | 51.51255 | -111.13680 | 41574 ft | 476 kts | 266° |
| 2026-04-22 19:56 | 51.51163 | -111.24302 | 41574 ft | 476 kts | 266° |
| 2026-04-22 19:57 | 51.51062 | -111.34925 | 41584 ft | 476 kts | 266° |
| 2026-04-22 19:57 | 51.50954 | -111.45544 | 41583 ft | 476 kts | 266° |
| 2026-04-22 19:58 | 51.50838 | -111.55988 | 40187 ft | 463 kts | 266° |
| 2026-04-22 19:58 | 51.50772 | -111.61197 | 38647 ft | 469 kts | 265° |
| 2026-04-22 19:58 | 51.50705 | -111.66414 | 37094 ft | 466 kts | 265° |
| 2026-04-22 19:59 | 51.50642 | -111.71603 | 35381 ft | 464 kts | 264° |
| 2026-04-22 20:00 | 51.50187 | -112.03356 | 19786 ft | 465 kts | 266° |
| 2026-04-22 20:00 | 51.50100 | -112.08413 | 18879 ft | 436 kts | 266° |
| 2026-04-22 20:01 | 51.50023 | -112.13050 | 19003 ft | 397 kts | 267° |
| 2026-04-22 20:01 | 51.49956 | -112.17283 | 19116 ft | 362 kts | 266° |
| 2026-04-22 20:01 | 51.49888 | -112.21233 | 19107 ft | 348 kts | 266° |
| 2026-04-22 20:01 | 51.49816 | -112.25098 | 18061 ft | 355 kts | 266° |
| 2026-04-22 20:02 | 51.49743 | -112.28979 | 17594 ft | 345 kts | 267° |
| 2026-04-22 20:02 | 51.49676 | -112.32841 | 17608 ft | 344 kts | 267° |
| 2026-04-22 20:02 | 51.49607 | -112.36615 | 17622 ft | 344 kts | 266° |
| 2026-04-22 20:02 | 51.49533 | -112.40450 | 17728 ft | 344 kts | 266° |
| 2026-04-22 20:03 | 51.49459 | -112.44289 | 17873 ft | 344 kts | 266° |
| 2026-04-22 20:03 | 51.49385 | -112.48138 | 17939 ft | 344 kts | 266° |
| 2026-04-22 20:03 | 51.49309 | -112.51985 | 17941 ft | 345 kts | 266° |
| 2026-04-22 20:03 | 51.49231 | -112.55831 | 17946 ft | 343 kts | 266° |
| 2026-04-22 20:04 | 51.49152 | -112.59676 | 17950 ft | 342 kts | 266° |
| 2026-04-22 20:04 | 51.49073 | -112.63509 | 17951 ft | 345 kts | 266° |
| 2026-04-22 20:04 | 51.48992 | -112.67344 | 17952 ft | 342 kts | 266° |
| 2026-04-22 20:04 | 51.48909 | -112.71180 | 17954 ft | 344 kts | 266° |
| 2026-04-22 20:05 | 51.48825 | -112.74997 | 17956 ft | 342 kts | 265° |
| 2026-04-22 20:05 | 51.48290 | -112.78654 | 17879 ft | 336 kts | 245° |
| 2026-04-22 20:05 | 51.47220 | -112.81985 | 17975 ft | 338 kts | 241° |
| 2026-04-22 20:05 | 51.46113 | -112.85295 | 17976 ft | 336 kts | 242° |
| 2026-04-22 20:06 | 51.45133 | -112.88699 | 17966 ft | 335 kts | 245° |
| 2026-04-22 20:06 | 51.44217 | -112.92143 | 17967 ft | 335 kts | 245° |
| 2026-04-22 20:06 | 51.43251 | -112.95545 | 17966 ft | 336 kts | 244° |
| 2026-04-22 20:06 | 51.42251 | -112.98908 | 17972 ft | 337 kts | 244° |
| 2026-04-22 20:07 | 51.41262 | -113.02299 | 17971 ft | 336 kts | 244° |
| 2026-04-22 20:07 | 51.40296 | -113.05691 | 17973 ft | 335 kts | 244° |
| 2026-04-22 20:07 | 51.39323 | -113.09081 | 17969 ft | 332 kts | 244° |
| 2026-04-22 20:07 | 51.38342 | -113.12450 | 17970 ft | 331 kts | 244° |
| 2026-04-22 20:08 | 51.37362 | -113.15816 | 17970 ft | 334 kts | 244° |
| 2026-04-22 20:08 | 51.36380 | -113.19203 | 17972 ft | 334 kts | 244° |
| 2026-04-22 20:08 | 51.35403 | -113.22566 | 17977 ft | 334 kts | 244° |
| 2026-04-22 20:08 | 51.34425 | -113.25924 | 17982 ft | 332 kts | 244° |
| 2026-04-22 20:09 | 51.33469 | -113.29200 | 17218 ft | 321 kts | 244° |
| 2026-04-22 20:09 | 51.32497 | -113.32526 | 15266 ft | 342 kts | 245° |
| 2026-04-22 20:09 | 51.31490 | -113.35963 | 14451 ft | 333 kts | 245° |
| 2026-04-22 20:09 | 51.30530 | -113.39246 | 13576 ft | 323 kts | 246° |
| 2026-04-22 20:10 | 51.29575 | -113.42504 | 12415 ft | 324 kts | 247° |
| 2026-04-22 20:10 | 51.28632 | -113.45710 | 11317 ft | 323 kts | 248° |
| 2026-04-22 20:10 | 51.27665 | -113.49001 | 10232 ft | 324 kts | 249° |
| 2026-04-22 20:10 | 51.26738 | -113.52144 | 9586 ft | 316 kts | 250° |
| 2026-04-22 20:11 | 51.25824 | -113.55218 | 9362 ft | 291 kts | 250° |
| 2026-04-22 20:11 | 51.24980 | -113.58086 | 8558 ft | 292 kts | 251° |
| 2026-04-22 20:11 | 51.24111 | -113.61061 | 7990 ft | 291 kts | 251° |
| 2026-04-22 20:11 | 51.23264 | -113.63902 | 8001 ft | 285 kts | 251° |
| 2026-04-22 20:12 | 51.22413 | -113.66778 | 8017 ft | 288 kts | 251° |
| 2026-04-22 20:12 | 51.21560 | -113.69661 | 8017 ft | 288 kts | 251° |
| 2026-04-22 20:12 | 51.20979 | -113.71617 | 8020 ft | 288 kts | 251° |
| 2026-04-22 20:12 | 51.19836 | -113.75457 | 8024 ft | 289 kts | 250° |
| 2026-04-22 20:13 | 51.18976 | -113.78343 | 8020 ft | 289 kts | 251° |
| 2026-04-22 20:13 | 51.18072 | -113.81210 | 7993 ft | 292 kts | 245° |
| 2026-04-22 20:13 | 51.16605 | -113.83517 | 7942 ft | 303 kts | 218° |
| 2026-04-22 20:13 | 51.14629 | -113.84760 | 7963 ft | 311 kts | 193° |
| 2026-04-22 20:14 | 51.12470 | -113.84906 | 8037 ft | 310 kts | 181° |
| 2026-04-22 20:14 | 51.10406 | -113.84856 | 8027 ft | 283 kts | 180° |
| 2026-04-22 20:14 | 51.08505 | -113.84833 | 8015 ft | 267 kts | 181° |
| 2026-04-22 20:14 | 51.06652 | -113.84849 | 8008 ft | 265 kts | 182° |
| 2026-04-22 20:15 | 51.04805 | -113.84861 | 8008 ft | 266 kts | 181° |
| 2026-04-22 20:15 | 51.02952 | -113.84867 | 8007 ft | 266 kts | 181° |
| 2026-04-22 20:15 | 51.01097 | -113.84875 | 8004 ft | 266 kts | 181° |
| 2026-04-22 20:15 | 50.99242 | -113.84883 | 8024 ft | 267 kts | 181° |
| 2026-04-22 20:16 | 50.97381 | -113.84893 | 8019 ft | 267 kts | 181° |
| 2026-04-22 20:16 | 50.95522 | -113.84901 | 8019 ft | 268 kts | 181° |
| 2026-04-22 20:16 | 50.93659 | -113.84883 | 8012 ft | 268 kts | 180° |
| 2026-04-22 20:16 | 50.91825 | -113.84849 | 7840 ft | 260 kts | 180° |
| 2026-04-22 20:17 | 50.89997 | -113.84822 | 7281 ft | 265 kts | 181° |
| 2026-04-22 20:17 | 50.88162 | -113.84793 | 6697 ft | 269 kts | 180° |
| 2026-04-22 20:17 | 50.86389 | -113.85448 | 6308 ft | 255 kts | 214° |
| 2026-04-22 20:17 | 50.85315 | -113.87457 | 6287 ft | 234 kts | 256° |
| 2026-04-22 20:18 | 50.85182 | -113.89892 | 6360 ft | 219 kts | 282° |
| 2026-04-22 20:18 | 50.85362 | -113.92296 | 6497 ft | 217 kts | 290° |
| 2026-04-22 20:18 | 50.86062 | -113.94312 | 6529 ft | 208 kts | 312° |
| 2026-04-22 20:18 | 50.86951 | -113.96129 | 6526 ft | 208 kts | 314° |
| 2026-04-22 20:19 | 50.87838 | -113.97942 | 6519 ft | 209 kts | 313° |
| 2026-04-22 20:19 | 50.88724 | -113.99763 | 6514 ft | 210 kts | 313° |
| 2026-04-22 20:19 | 50.89602 | -114.01570 | 6514 ft | 199 kts | 313° |
| 2026-04-22 20:19 | 50.90517 | -114.02919 | 6388 ft | 170 kts | 340° |
| 2026-04-22 20:20 | 50.91630 | -114.02695 | 6263 ft | 170 kts | 28° |
| 2026-04-22 20:20 | 50.92281 | -114.01048 | 6317 ft | 180 kts | 55° |
| 2026-04-22 20:20 | 50.93030 | -113.99596 | 6425 ft | 164 kts | 32° |
| 2026-04-22 20:20 | 50.94040 | -113.98854 | 6511 ft | 163 kts | 9° |
| 2026-04-22 20:21 | 50.95147 | -113.98895 | 6510 ft | 156 kts | 347° |
| 2026-04-22 20:21 | 50.96022 | -113.99663 | 6484 ft | 135 kts | 323° |
| 2026-04-22 20:21 | 50.96466 | -114.00873 | 6416 ft | 119 kts | 303° |
| 2026-04-22 20:21 | 50.96681 | -114.02106 | 6261 ft | 114 kts | 297° |
| 2026-04-22 20:22 | 50.96993 | -114.03180 | 6032 ft | 108 kts | 313° |
| 2026-04-22 20:22 | 50.97269 | -114.04312 | 5839 ft | 110 kts | 302° |
| 2026-04-22 20:22 | 50.97519 | -114.05423 | 5823 ft | 100 kts | 310° |
| 2026-04-22 20:22 | 50.97969 | -114.06172 | 5866 ft | 94 kts | 330° |
| 2026-04-22 20:23 | 50.98467 | -114.06871 | 6032 ft | 97 kts | 326° |
| 2026-04-22 20:23 | 50.99074 | -114.07259 | 6026 ft | 96 kts | 357° |
| 2026-04-22 20:23 | 50.99728 | -114.06942 | 5877 ft | 105 kts | 22° |
| 2026-04-22 20:23 | 51.00313 | -114.06158 | 5706 ft | 109 kts | 35° |
| 2026-04-22 20:24 | 51.00809 | -114.05282 | 5534 ft | 109 kts | 37° |
| 2026-04-22 20:24 | 51.01298 | -114.04358 | 5334 ft | 108 kts | 39° |
| 2026-04-22 20:24 | 51.01774 | -114.03440 | 5155 ft | 107 kts | 38° |
| 2026-04-22 20:24 | 51.02255 | -114.02570 | 5056 ft | 103 kts | 31° |
| 2026-04-22 20:25 | 51.02842 | -114.01978 | 4901 ft | 100 kts | 13° |
| 2026-04-22 20:25 | 51.03509 | -114.02001 | 4858 ft | 93 kts | 351° |
| 2026-04-22 20:25 | 51.04154 | -114.02205 | 4842 ft | 96 kts | 350° |
| 2026-04-22 20:25 | 51.04816 | -114.02298 | 4712 ft | 97 kts | 357° |
| 2026-04-22 20:26 | 51.05485 | -114.02221 | 4520 ft | 96 kts | 0° |
| 2026-04-22 20:26 | 51.06156 | -114.02189 | 4292 ft | 96 kts | 1° |
| 2026-04-22 20:26 | 51.06847 | -114.02161 | 4124 ft | 101 kts | 358° |
| 2026-04-22 20:26 | 51.07543 | -114.02192 | 3985 ft | 100 kts | 360° |
| 2026-04-22 20:27 | 51.08226 | -114.02184 | 3878 ft | 96 kts | 2° |
| 2026-04-22 20:27 | 51.08892 | -114.02168 | 3733 ft | 97 kts | 1° |
| 2026-04-22 20:27 | 51.09553 | -114.02155 | 3618 ft | 93 kts | 0° |
| 2026-04-22 20:27 | 51.10162 | -114.02158 | 3565 ft | 79 kts | 0° |
| 2026-04-22 20:28 | 51.10500 | -114.02155 | 3554 ft | 68 kts | 0° |
| 2026-04-22 20:28 | 51.10920 | -114.02141 | 3556 ft | 51 kts | 360° |
| 2026-04-22 20:28 | 51.11194 | -114.02144 | 3557 ft | 31 kts | 359° |
| 2026-04-22 20:28 | 51.11347 | -114.02142 | 3555 ft | 15 kts | 2° |
| 2026-04-22 20:29 | 51.11425 | -114.02158 | 3554 ft | 13 kts | 322° |
| 2026-04-22 20:29 | 51.11433 | -114.02286 | 3555 ft | 14 kts | 270° |
| 2026-04-22 20:29 | 51.11475 | -114.02416 | 3555 ft | 13 kts | 349° |
| 2026-04-22 20:29 | 51.11581 | -114.02419 | 3555 ft | 17 kts | 357° |
| 2026-04-22 20:30 | 51.11695 | -114.02419 | 3555 ft | 17 kts | 0° |
| 2026-04-22 20:30 | 51.11830 | -114.02419 | 3556 ft | 22 kts | 360° |
| 2026-04-22 20:30 | 51.11975 | -114.02420 | 3556 ft | 19 kts | 360° |
| 2026-04-22 20:30 | 51.12042 | -114.02420 | 3556 ft | 5 kts | 360° |
| 2026-04-22 20:31 | 51.12088 | -114.02420 | 3556 ft | 8 kts | 0° |
| 2026-04-22 20:31 | 51.12133 | -114.02420 | 3557 ft | 8 kts | 0° |
| 2026-04-22 20:31 | 51.12214 | -114.02431 | 3558 ft | 15 kts | 331° |
| 2026-04-22 20:31 | 51.12293 | -114.02602 | 3556 ft | 21 kts | 300° |
| 2026-04-22 20:32 | 51.12370 | -114.02817 | 3556 ft | 23 kts | 299° |
| 2026-04-22 20:32 | 51.12445 | -114.03029 | 3557 ft | 20 kts | 300° |
| 2026-04-22 20:32 | 51.12514 | -114.03214 | 3557 ft | 19 kts | 301° |
| 2026-04-22 20:32 | 51.12580 | -114.03378 | 3557 ft | 17 kts | 303° |
| 2026-04-22 20:33 | 51.12646 | -114.03532 | 3555 ft | 17 kts | 304° |
| 2026-04-22 20:33 | 51.12700 | -114.03675 | 3555 ft | 14 kts | 301° |
| 2026-04-22 20:33 | 51.12776 | -114.03714 | 3555 ft | 11 kts | 15° |
| 2026-04-22 20:33 | 51.12838 | -114.03663 | 3556 ft | 9 kts | 44° |
| 2026-04-22 20:34 | 51.12863 | -114.03579 | 3556 ft | 8 kts | 64° |
| 2026-04-22 20:34 | 51.12903 | -114.03528 | 3556 ft | 7 kts | 31° |
| 2026-04-22 20:34 | 51.12942 | -114.03492 | 3556 ft | 6 kts | 30° |
| 2026-04-22 20:34 | 51.12949 | -114.03481 | 3556 ft | 1 kts | 62° |
| 2026-04-22 20:35 | 51.12939 | -114.03431 | 3556 ft | 6 kts | 120° |
| 2026-04-22 20:35 | 51.12917 | -114.03372 | 3556 ft | 6 kts | 120° |
| 2026-04-22 20:35 | 51.12900 | -114.03315 | 3556 ft | 4 kts | 91° |
| 2026-04-22 20:35 | 51.12909 | -114.03302 | 3556 ft | 1 kts | 26° |
| 2026-04-22 20:36 | 51.12915 | -114.03298 | 3556 ft | 1 kts | 25° |
| 2026-04-22 20:36 | 51.12927 | -114.03289 | 3556 ft | 4 kts | 25° |
| 2026-04-22 20:36 | 51.12962 | -114.03254 | 3556 ft | 5 kts | 33° |
| 2026-04-22 20:36 | 51.12983 | -114.03235 | 3556 ft | 1 kts | 29° |